createdAt,value
2022-08-05T00:00:16.451Z,76.72
2022-08-05T00:01:20.309Z,76.65
2022-08-05T00:02:11.294Z,76.75
2022-08-05T00:02:58.493Z,76.82
2022-08-05T00:03:45.284Z,76.91
2022-08-05T00:04:33.051Z,76.85
2022-08-05T00:06:02.912Z,76.72
2022-08-05T00:06:32.836Z,76.69
2022-08-05T00:07:26.901Z,76.88
2022-08-05T00:08:34.624Z,76.72
2022-08-05T00:09:22.113Z,76.68
2022-08-05T00:10:09.252Z,76.76
2022-08-05T00:10:56.719Z,76.94
2022-08-05T00:11:55.706Z,77.04
2022-08-05T00:12:48.510Z,76.80
2022-08-05T00:13:44.229Z,77.05
2022-08-05T00:14:39.832Z,77.25
2022-08-05T00:15:57.525Z,77.33
2022-08-05T00:16:36.354Z,77.30
2022-08-05T00:17:39.019Z,77.31
2022-08-05T00:18:28.978Z,77.64
2022-08-05T00:19:15.761Z,77.72
2022-08-05T00:20:03.250Z,77.90
2022-08-05T00:20:52.850Z,77.84
2022-08-05T00:21:39.710Z,77.98
2022-08-05T00:22:29.580Z,78.16
2022-08-05T00:23:31.054Z,78.17
2022-08-05T00:24:30.686Z,78.07
2022-08-05T00:25:18.179Z,77.98
2022-08-05T00:26:05.629Z,77.76
2022-08-05T00:26:53.339Z,77.66
2022-08-05T00:27:40.670Z,77.75
2022-08-05T00:28:29.955Z,77.64
2022-08-05T00:29:16.880Z,77.55
2022-08-05T00:30:11.417Z,77.55
2022-08-05T00:30:58.440Z,77.37
2022-08-05T00:31:53.610Z,77.37
2022-08-05T00:32:57.550Z,77.29
2022-08-05T00:34:55.331Z,77.11
2022-08-05T00:35:05.161Z,77.08
2022-08-05T00:36:15.000Z,76.95
2022-08-05T00:37:11.754Z,76.86
2022-08-05T00:38:01.422Z,76.92
2022-08-05T00:38:49.749Z,76.85
2022-08-05T00:39:37.179Z,76.76
2022-08-05T00:40:29.466Z,76.92
2022-08-05T00:41:27.919Z,77.50
2022-08-05T00:42:39.879Z,77.54
2022-08-05T00:43:26.943Z,77.67
2022-08-05T00:44:33.559Z,77.73
2022-08-05T00:45:28.276Z,77.85
2022-08-05T00:46:42.769Z,77.59
2022-08-05T00:47:49.204Z,77.45
2022-08-05T00:48:51.184Z,77.42
2022-08-05T00:49:51.290Z,77.28
2022-08-05T00:50:41.385Z,77.05
2022-08-05T00:51:51.532Z,77.33
2022-08-05T00:52:39.211Z,77.37
2022-08-05T00:54:01.350Z,77.62
2022-08-05T00:54:33.199Z,77.75
2022-08-05T00:55:19.989Z,77.63
2022-08-05T00:56:07.745Z,77.74
2022-08-05T00:56:54.780Z,77.88
2022-08-05T00:57:58.158Z,77.74
2022-08-05T00:58:46.047Z,77.98
2022-08-05T00:59:44.281Z,78.32
2022-08-05T01:00:32.225Z,78.52
2022-08-05T01:01:41.980Z,78.55
2022-08-05T01:02:27.350Z,78.53
2022-08-05T01:03:22.558Z,78.67
2022-08-05T01:04:13.593Z,78.71
2022-08-05T01:05:01.223Z,78.79
2022-08-05T01:05:54.847Z,78.84
2022-08-05T01:06:41.859Z,78.93
2022-08-05T01:07:33.523Z,78.90
2022-08-05T01:08:30.292Z,78.85
2022-08-05T01:09:30.346Z,79.02
2022-08-05T01:10:19.319Z,79.34
2022-08-05T01:11:33.350Z,79.01
2022-08-05T01:12:21.821Z,78.85
2022-08-05T01:13:19.504Z,79.08
2022-08-05T01:14:45.940Z,79.02
2022-08-05T01:15:36.834Z,79.47
2022-08-05T01:16:54.981Z,79.67
2022-08-05T01:17:53.727Z,79.65
2022-08-05T01:18:48.186Z,79.68
2022-08-05T01:20:03.048Z,79.87
2022-08-05T01:20:52.458Z,80.07
2022-08-05T01:22:05.400Z,79.76
2022-08-05T01:22:57.201Z,79.74
2022-08-05T01:23:53.293Z,79.73
2022-08-05T01:25:04.646Z,79.44
2022-08-05T01:25:57.079Z,79.22
2022-08-05T01:27:22.123Z,79.16
2022-08-05T01:28:27.490Z,79.07
2022-08-05T01:29:23.083Z,79.27
2022-08-05T01:30:12.402Z,79.32
2022-08-05T01:31:27.060Z,79.16
2022-08-05T01:32:18.557Z,79.02
2022-08-05T01:33:08.706Z,79.03
2022-08-05T01:34:16.018Z,79.15
2022-08-05T01:35:51.240Z,79.14
2022-08-05T01:36:28.088Z,79.44
2022-08-05T01:37:27.629Z,79.52
2022-08-05T01:38:27.412Z,79.65
2022-08-05T01:39:36.178Z,80.06
2022-08-05T01:40:28.989Z,80.21
2022-08-05T01:41:18.175Z,80.19
2022-08-05T01:42:11.462Z,80.31
2022-08-05T01:43:03.591Z,80.35
2022-08-05T01:43:51.409Z,80.30
2022-08-05T01:44:39.459Z,80.27
2022-08-05T01:45:28.391Z,80.18
2022-08-05T01:46:42.044Z,80.21
2022-08-05T01:47:39.476Z,79.96
2022-08-05T01:48:30.548Z,79.87
2022-08-05T01:49:23.709Z,79.81
2022-08-05T01:50:15.983Z,79.71
2022-08-05T01:51:12.509Z,79.90
2022-08-05T01:52:01.666Z,79.90
2022-08-05T01:53:08.048Z,79.77
2022-08-05T01:53:58.111Z,79.48
2022-08-05T01:54:49.539Z,79.38
2022-08-05T01:55:41.359Z,79.38
2022-08-05T01:58:09.367Z,79.40
2022-08-05T01:58:29.306Z,79.46
2022-08-05T01:58:50.277Z,79.30
2022-08-05T01:59:39.290Z,79.38
2022-08-05T02:00:30.337Z,79.68
2022-08-05T02:01:25.309Z,79.85
2022-08-05T02:02:15.955Z,79.85
2022-08-05T02:03:50.124Z,79.85
2022-08-05T02:04:38.459Z,79.85
2022-08-05T02:05:34.294Z,80.00
2022-08-05T02:06:37.892Z,80.05
2022-08-05T02:07:25.569Z,80.46
2022-08-05T02:08:28.961Z,80.70
2022-08-05T02:09:20.448Z,80.59
2022-08-05T02:10:08.101Z,80.58
2022-08-05T02:11:03.590Z,80.56
2022-08-05T02:11:57.299Z,80.68
2022-08-05T02:12:51.165Z,80.71
2022-08-05T02:13:59.090Z,80.62
2022-08-05T02:14:53.498Z,80.50
2022-08-05T02:15:45.929Z,80.47
2022-08-05T02:16:37.599Z,80.57
2022-08-05T02:18:32.053Z,80.82
2022-08-05T02:18:50.979Z,81.00
2022-08-05T02:19:42.706Z,81.08
2022-08-05T02:20:40.824Z,81.25
2022-08-05T02:21:42.891Z,81.27
2022-08-05T02:22:38.638Z,81.29
2022-08-05T02:23:30.500Z,81.16
2022-08-05T02:24:23.728Z,81.28
2022-08-05T02:25:17.969Z,81.36
2022-08-05T02:26:06.860Z,81.55
2022-08-05T02:27:00.348Z,81.50
2022-08-05T02:28:00.120Z,81.45
2022-08-05T02:28:48.150Z,81.30
2022-08-05T02:29:58.897Z,81.20
2022-08-05T02:30:54.177Z,81.19
2022-08-05T02:31:41.829Z,81.57
2022-08-05T02:32:31.960Z,81.59
2022-08-05T02:33:35.727Z,81.59
2022-08-05T02:34:28.036Z,81.82
2022-08-05T02:35:19.122Z,82.13
2022-08-05T02:36:17.092Z,82.45
2022-08-05T02:37:06.208Z,82.61
2022-08-05T02:37:55.799Z,82.77
2022-08-05T02:38:52.968Z,83.02
2022-08-05T02:39:41.497Z,83.15
2022-08-05T02:40:34.619Z,83.22
2022-08-05T02:41:23.187Z,83.32
2022-08-05T02:42:11.178Z,83.12
2022-08-05T02:43:15.337Z,83.25
2022-08-05T02:44:06.790Z,82.92
2022-08-05T02:45:00.639Z,83.27
2022-08-05T02:45:51.491Z,83.46
2022-08-05T02:46:44.048Z,83.29
2022-08-05T02:48:06.555Z,83.39
2022-08-05T02:48:52.779Z,83.33
2022-08-05T02:49:44.698Z,83.11
2022-08-05T02:50:32.210Z,83.23
2022-08-05T02:51:19.550Z,83.37
2022-08-05T02:52:29.475Z,83.69
2022-08-05T02:53:20.918Z,83.64
2022-08-05T02:54:07.951Z,83.82
2022-08-05T02:54:55.430Z,83.92
2022-08-05T02:55:54.454Z,83.99
2022-08-05T02:56:47.559Z,84.03
2022-08-05T02:58:11.718Z,83.93
2022-08-05T02:58:43.918Z,83.83
2022-08-05T02:59:30.894Z,83.20
2022-08-05T03:00:35.579Z,83.27
2022-08-05T03:01:27.074Z,83.00
2022-08-05T03:02:15.479Z,83.14
2022-08-05T03:03:02.482Z,83.29
2022-08-05T03:04:03.277Z,83.18
2022-08-05T03:04:53.320Z,83.10
2022-08-05T03:06:54.658Z,83.13
2022-08-05T03:06:54.728Z,83.31
2022-08-05T03:08:00.316Z,83.46
2022-08-05T03:08:53.659Z,83.65
2022-08-05T03:09:51.636Z,83.45
2022-08-05T03:10:39.125Z,83.33
2022-08-05T03:11:54.739Z,83.24
2022-08-05T03:12:36.720Z,83.17
2022-08-05T03:13:27.559Z,83.15
2022-08-05T03:14:30.367Z,83.12
2022-08-05T03:15:17.488Z,82.95
2022-08-05T03:16:04.282Z,82.69
2022-08-05T03:16:53.416Z,82.43
2022-08-05T03:17:42.047Z,82.04
2022-08-05T03:18:31.688Z,81.97
2022-08-05T03:19:34.413Z,82.09
2022-08-05T03:20:24.567Z,82.17
2022-08-05T03:21:11.740Z,82.17
2022-08-05T03:21:58.560Z,82.09
2022-08-05T03:22:49.809Z,82.17
2022-08-05T03:23:39.109Z,82.11
2022-08-05T03:24:30.121Z,82.12
2022-08-05T03:25:33.617Z,82.56
2022-08-05T03:26:32.307Z,82.67
2022-08-05T03:27:20.943Z,82.60
2022-08-05T03:28:08.854Z,82.57
2022-08-05T03:28:55.879Z,82.51
2022-08-05T03:29:45.087Z,82.45
2022-08-05T03:30:49.702Z,82.37
2022-08-05T03:31:57.294Z,82.04
2022-08-05T03:32:45.487Z,81.88
2022-08-05T03:33:51.096Z,81.88
2022-08-05T03:34:39.970Z,81.81
2022-08-05T03:35:28.178Z,81.78
2022-08-05T03:36:15.669Z,81.72
2022-08-05T03:37:03.229Z,81.79
2022-08-05T03:37:50.068Z,81.92
2022-08-05T03:38:44.419Z,82.13
2022-08-05T03:39:59.358Z,82.21
2022-08-05T03:40:49.248Z,82.12
2022-08-05T03:41:45.153Z,82.08
2022-08-05T03:42:41.796Z,82.07
2022-08-05T03:44:08.368Z,81.99
2022-08-05T03:44:46.011Z,81.67
2022-08-05T03:45:57.234Z,81.47
2022-08-05T03:46:41.249Z,81.24
2022-08-05T03:47:30.590Z,81.47
2022-08-05T03:48:22.782Z,81.54
2022-08-05T03:49:09.611Z,81.49
2022-08-05T03:49:57.640Z,81.56
2022-08-05T03:50:54.061Z,82.00
2022-08-05T03:52:50.307Z,81.99
2022-08-05T03:55:49.977Z,81.00
2022-08-05T03:55:51.093Z,81.80
2022-08-05T03:56:09.850Z,80.69
2022-08-05T03:56:46.477Z,80.32
2022-08-05T03:57:42.544Z,80.51
2022-08-05T03:58:32.090Z,80.65
2022-08-05T03:59:47.120Z,80.66
2022-08-05T04:00:34.390Z,80.65
2022-08-05T04:01:22.552Z,80.45
2022-08-05T04:02:14.864Z,81.12
2022-08-05T04:03:06.337Z,81.32
2022-08-05T04:03:56.960Z,81.27
2022-08-05T04:05:01.880Z,81.10
2022-08-05T04:05:49.150Z,80.96
2022-08-05T04:06:36.159Z,80.92
2022-08-05T04:07:24.933Z,80.62
2022-08-05T04:08:14.634Z,80.28
2022-08-05T04:09:20.454Z,79.92
2022-08-05T04:10:13.560Z,79.83
2022-08-05T04:11:06.139Z,79.89
2022-08-05T04:11:52.920Z,79.82
2022-08-05T04:13:49.322Z,79.63
2022-08-05T04:14:33.558Z,80.06
2022-08-05T04:15:20.502Z,79.46
2022-08-05T04:16:14.328Z,79.68
2022-08-05T04:17:02.866Z,79.58
2022-08-05T04:17:56.624Z,79.54
2022-08-05T04:18:54.198Z,79.65
2022-08-05T04:19:45.958Z,79.60
2022-08-05T04:20:41.506Z,79.27
2022-08-05T04:22:05.265Z,79.08
2022-08-05T04:22:35.812Z,78.95
2022-08-05T04:23:57.389Z,78.66
2022-08-05T04:24:34.339Z,77.42
2022-08-05T04:25:38.488Z,74.77
2022-08-05T04:26:32.471Z,72.95
2022-08-05T04:27:19.420Z,71.63
2022-08-05T04:28:20.628Z,71.46
2022-08-05T04:29:18.589Z,71.24
2022-08-05T04:30:07.981Z,71.67
2022-08-05T04:30:55.646Z,71.85
2022-08-05T04:31:43.011Z,71.81
2022-08-05T04:32:31.014Z,71.65
2022-08-05T04:33:20.539Z,71.42
2022-08-05T04:34:33.775Z,71.18
2022-08-05T04:35:22.020Z,70.45
2022-08-05T04:36:16.596Z,69.78
2022-08-05T04:37:17.431Z,69.87
2022-08-05T04:38:06.850Z,69.71
2022-08-05T04:38:55.276Z,68.58
2022-08-05T04:39:43.955Z,68.12
2022-08-05T04:40:44.472Z,67.34
2022-08-05T04:41:38.657Z,66.82
2022-08-05T04:42:25.739Z,66.36
2022-08-05T04:43:16.517Z,65.48
2022-08-05T04:44:09.605Z,64.62
2022-08-05T04:44:56.659Z,62.72
2022-08-05T04:45:48.224Z,61.55
2022-08-05T04:46:35.908Z,60.75
2022-08-05T04:47:22.939Z,60.92
2022-08-05T04:48:13.303Z,61.29
2022-08-05T04:49:14.589Z,61.65
2022-08-05T04:50:11.089Z,61.86
2022-08-05T04:51:02.593Z,62.24
2022-08-05T04:51:50.687Z,62.57
2022-08-05T04:52:47.344Z,62.71
2022-08-05T04:53:38.926Z,62.25
2022-08-05T04:54:28.789Z,61.73
2022-08-05T04:55:15.572Z,61.84
2022-08-05T04:56:14.812Z,61.73
2022-08-05T04:57:10.239Z,61.34
2022-08-05T04:57:57.087Z,59.93
2022-08-05T04:58:43.889Z,57.87
2022-08-05T04:59:39.243Z,55.59
2022-08-05T05:00:27.648Z,52.78
2022-08-05T05:01:33.672Z,49.72
2022-08-05T05:02:36.871Z,48.37
2022-08-05T05:03:28.427Z,48.69
2022-08-05T05:04:28.917Z,49.86
2022-08-05T05:05:16.663Z,51.34
2022-08-05T05:06:39.567Z,52.25
2022-08-05T05:07:29.271Z,52.94
2022-08-05T05:08:29.978Z,53.03
2022-08-05T05:09:18.401Z,53.44
2022-08-05T05:10:06.704Z,54.17
2022-08-05T05:10:56.221Z,54.82
2022-08-05T05:11:54.481Z,55.07
2022-08-05T05:12:43.619Z,55.48
2022-08-05T05:13:32.347Z,55.78
2022-08-05T05:14:32.001Z,55.46
2022-08-05T05:15:57.291Z,54.82
2022-08-05T05:16:30.383Z,54.15
2022-08-05T05:17:22.819Z,52.74
2022-08-05T05:18:15.060Z,52.55
2022-08-05T05:19:19.393Z,52.38
2022-08-05T05:20:11.733Z,51.82
2022-08-05T05:20:58.756Z,50.96
2022-08-05T05:21:46.426Z,50.28
2022-08-05T05:22:33.622Z,50.05
2022-08-05T05:23:20.469Z,50.08
2022-08-05T05:24:09.208Z,50.84
2022-08-05T05:24:59.467Z,51.27
2022-08-05T05:25:46.448Z,51.72
2022-08-05T05:26:34.680Z,52.36
2022-08-05T05:27:22.599Z,52.45
2022-08-05T05:28:11.149Z,52.28
2022-08-05T05:28:57.864Z,52.10
2022-08-05T05:30:03.843Z,52.56
2022-08-05T05:30:51.800Z,52.72
2022-08-05T05:32:24.509Z,52.09
2022-08-05T05:33:17.074Z,52.04
2022-08-05T05:34:03.969Z,52.14
2022-08-05T05:34:52.410Z,52.22
2022-08-05T05:35:42.399Z,52.38
2022-08-05T05:36:30.208Z,52.92
2022-08-05T05:37:17.136Z,53.80
2022-08-05T05:38:05.664Z,54.32
2022-08-05T05:38:57.413Z,54.71
2022-08-05T05:39:44.528Z,55.12
2022-08-05T05:40:32.306Z,56.01
2022-08-05T05:41:20.139Z,56.46
2022-08-05T05:42:07.298Z,57.19
2022-08-05T05:42:54.918Z,57.22
2022-08-05T05:43:58.563Z,57.45
2022-08-05T05:44:47.258Z,56.84
2022-08-05T05:45:33.999Z,57.17
2022-08-05T05:46:20.831Z,57.64
2022-08-05T05:47:13.229Z,57.29
2022-08-05T05:48:08.975Z,57.61
2022-08-05T05:48:55.820Z,57.94
2022-08-05T05:49:42.679Z,57.63
2022-08-05T05:50:29.459Z,58.47
2022-08-05T05:51:23.559Z,58.11
2022-08-05T05:52:25.513Z,57.70
2022-08-05T05:53:20.811Z,57.89
2022-08-05T05:54:08.648Z,58.14
2022-08-05T05:55:07.465Z,57.60
2022-08-05T05:56:03.321Z,57.66
2022-08-05T05:56:50.188Z,55.70
2022-08-05T05:57:52.188Z,53.87
2022-08-05T05:58:40.326Z,54.22
2022-08-05T05:59:28.619Z,52.81
2022-08-05T06:00:20.068Z,49.97
2022-08-05T06:01:12.569Z,51.87
2022-08-05T06:02:00.285Z,51.47
2022-08-05T06:02:47.908Z,48.30
2022-08-05T06:03:53.864Z,47.04
2022-08-05T06:04:41.923Z,48.11
2022-08-05T06:05:29.189Z,45.00
2022-08-05T06:06:18.689Z,47.58
2022-08-05T06:07:09.018Z,47.10
2022-08-05T06:08:01.996Z,46.37
2022-08-05T06:08:49.299Z,43.45
2022-08-05T06:10:00.053Z,42.98
2022-08-05T06:10:52.505Z,41.85
2022-08-05T06:11:39.748Z,42.73
2022-08-05T06:12:27.136Z,44.03
2022-08-05T06:13:14.148Z,43.05
2022-08-05T06:14:01.049Z,43.57
2022-08-05T06:14:49.090Z,43.29
2022-08-05T06:16:30.436Z,42.23
2022-08-05T06:16:45.534Z,42.76
2022-08-05T06:17:33.857Z,43.09
2022-08-05T06:18:40.468Z,42.93
2022-08-05T06:19:34.658Z,43.26
2022-08-05T06:20:22.592Z,43.04
2022-08-05T06:21:18.645Z,42.13
2022-08-05T06:22:07.132Z,42.32
2022-08-05T06:22:56.347Z,41.88
2022-08-05T06:23:45.118Z,41.40
2022-08-05T06:24:32.549Z,41.34
2022-08-05T06:25:25.063Z,40.60
2022-08-05T06:26:26.119Z,40.15
2022-08-05T06:28:10.651Z,39.86
2022-08-05T06:28:28.491Z,40.46
2022-08-05T06:29:42.829Z,40.01
2022-08-05T06:30:22.308Z,38.94
2022-08-05T06:31:17.899Z,39.55
2022-08-05T06:32:05.428Z,39.84
2022-08-05T06:33:10.689Z,39.03
2022-08-05T06:34:06.878Z,38.07
2022-08-05T06:34:57.204Z,38.39
2022-08-05T06:36:07.777Z,38.72
2022-08-05T06:36:57.618Z,39.96
2022-08-05T06:37:57.376Z,38.84
2022-08-05T06:38:46.947Z,37.50
2022-08-05T06:39:34.271Z,37.78
2022-08-05T06:40:21.616Z,36.67
2022-08-05T06:41:14.870Z,36.54
2022-08-05T06:42:04.034Z,36.09
2022-08-05T06:42:52.517Z,37.01
2022-08-05T06:43:59.047Z,37.16
2022-08-05T06:44:46.259Z,37.01
2022-08-05T06:45:44.548Z,36.78
2022-08-05T06:46:42.978Z,36.61
2022-08-05T06:48:36.411Z,34.98
2022-08-05T06:48:56.349Z,35.37
2022-08-05T06:50:00.034Z,35.05
2022-08-05T06:50:49.937Z,35.51
2022-08-05T06:51:36.892Z,34.03
2022-08-05T06:52:37.733Z,34.50
2022-08-05T06:53:28.426Z,34.96
2022-08-05T06:54:18.965Z,36.71
2022-08-05T06:55:07.243Z,37.26
2022-08-05T06:55:54.029Z,37.46
2022-08-05T06:56:40.969Z,36.86
2022-08-05T06:57:57.294Z,36.58
2022-08-05T06:58:48.480Z,36.88
2022-08-05T06:59:38.478Z,36.17
2022-08-05T07:00:26.089Z,36.22
2022-08-05T07:01:16.776Z,34.73
2022-08-05T07:02:08.338Z,34.65
2022-08-05T07:02:55.378Z,35.52
2022-08-05T07:03:42.157Z,35.16
2022-08-05T07:04:28.881Z,36.57
2022-08-05T07:05:18.877Z,36.36
2022-08-05T07:06:14.332Z,35.39
2022-08-05T07:07:02.218Z,34.87
2022-08-05T07:07:49.207Z,34.19
2022-08-05T07:08:35.989Z,34.48
2022-08-05T07:09:24.974Z,34.26
2022-08-05T07:10:14.863Z,35.66
2022-08-05T07:11:04.758Z,37.59
2022-08-05T07:11:52.367Z,37.94
2022-08-05T07:12:57.682Z,38.35
2022-08-05T07:14:03.328Z,38.17
2022-08-05T07:15:09.699Z,38.45
2022-08-05T07:17:57.311Z,38.62
2022-08-05T07:18:00.459Z,39.65
2022-08-05T07:18:30.338Z,38.41
2022-08-05T07:19:44.249Z,38.58
2022-08-05T07:20:38.743Z,38.35
2022-08-05T07:21:26.145Z,38.20
2022-08-05T07:22:12.909Z,38.16
2022-08-05T07:23:02.699Z,38.17
2022-08-05T07:23:52.375Z,38.19
2022-08-05T07:24:43.958Z,37.66
2022-08-05T07:25:55.464Z,37.02
2022-08-05T07:26:44.761Z,36.94
2022-08-05T07:27:56.389Z,37.54
2022-08-05T07:28:39.983Z,37.65
2022-08-05T07:30:22.160Z,37.49
2022-08-05T07:30:38.370Z,37.34
2022-08-05T07:31:54.077Z,37.61
2022-08-05T07:32:37.788Z,37.32
2022-08-05T07:33:36.577Z,35.73
2022-08-05T07:34:28.571Z,37.30
2022-08-05T07:36:02.655Z,35.96
2022-08-05T07:36:22.384Z,36.08
2022-08-05T07:37:11.710Z,35.95
2022-08-05T07:37:58.628Z,36.10
2022-08-05T07:38:46.269Z,36.56
2022-08-05T07:40:04.181Z,36.86
2022-08-05T07:40:44.605Z,36.73
2022-08-05T07:42:08.710Z,36.97
2022-08-05T07:42:38.182Z,36.85
2022-08-05T07:43:25.059Z,36.43
2022-08-05T07:44:19.443Z,34.94
2022-08-05T07:45:09.268Z,35.41
2022-08-05T07:45:57.098Z,35.18
2022-08-05T07:46:48.598Z,33.96
2022-08-05T07:47:42.499Z,33.02
2022-08-05T07:49:02.984Z,33.62
2022-08-05T07:49:43.630Z,33.78
2022-08-05T07:50:41.260Z,34.56
2022-08-05T07:51:36.714Z,34.67
2022-08-05T07:52:27.397Z,35.00
2022-08-05T07:53:14.869Z,32.57
2022-08-05T07:54:02.014Z,32.74
2022-08-05T07:54:49.366Z,32.40
2022-08-05T07:56:05.869Z,32.84
2022-08-05T07:57:13.575Z,32.46
2022-08-05T07:58:02.379Z,32.34
2022-08-05T07:58:57.676Z,35.83
2022-08-05T07:59:46.839Z,35.34
2022-08-05T08:00:35.732Z,32.44
2022-08-05T08:01:25.411Z,32.27
2022-08-05T08:02:17.927Z,32.32
2022-08-05T08:03:14.938Z,32.90
2022-08-05T08:04:03.179Z,29.83
2022-08-05T08:04:50.978Z,29.92
2022-08-05T08:05:49.845Z,30.38
2022-08-05T08:06:36.970Z,30.54
2022-08-05T08:07:24.059Z,30.06
2022-08-05T08:08:12.195Z,29.49
2022-08-05T08:08:59.391Z,30.74
2022-08-05T08:09:48.131Z,31.30
2022-08-05T08:10:34.909Z,30.61
2022-08-05T08:11:27.574Z,30.80
2022-08-05T08:12:48.414Z,30.79
2022-08-05T08:13:42.998Z,30.70
2022-08-05T08:14:36.359Z,30.54
2022-08-05T08:15:37.092Z,30.84
2022-08-05T08:16:35.251Z,31.27
2022-08-05T08:17:36.929Z,30.73
2022-08-05T08:18:24.358Z,30.19
2022-08-05T08:20:10.080Z,30.65
2022-08-05T08:20:43.336Z,30.46
2022-08-05T08:21:25.390Z,31.79
2022-08-05T08:22:16.017Z,30.13
2022-08-05T08:23:03.520Z,31.25
2022-08-05T08:24:02.840Z,31.37
2022-08-05T08:24:52.152Z,31.71
2022-08-05T08:26:00.579Z,31.45
2022-08-05T08:26:46.310Z,31.53
2022-08-05T08:27:40.159Z,31.09
2022-08-05T08:28:36.335Z,31.74
2022-08-05T08:30:03.295Z,31.89
2022-08-05T08:30:40.854Z,32.13
2022-08-05T08:31:34.299Z,31.32
2022-08-05T08:32:27.977Z,31.24
2022-08-05T08:33:15.128Z,30.76
2022-08-05T08:34:01.939Z,30.93
2022-08-05T08:34:49.005Z,30.16
2022-08-05T08:35:41.275Z,30.25
2022-08-05T08:36:38.708Z,30.25
2022-08-05T08:37:30.001Z,30.37
2022-08-05T08:38:35.411Z,32.18
2022-08-05T08:39:24.882Z,29.80
2022-08-05T08:40:13.149Z,30.37
2022-08-05T08:41:00.851Z,31.62
2022-08-05T08:41:51.055Z,30.31
2022-08-05T08:42:51.040Z,30.90
2022-08-05T08:45:19.799Z,31.06
2022-08-05T08:45:20.620Z,31.95
2022-08-05T08:45:56.251Z,32.81
2022-08-05T08:46:44.318Z,31.01
2022-08-05T08:48:06.028Z,31.04
2022-08-05T08:49:04.149Z,31.20
2022-08-05T08:50:13.178Z,30.91
2022-08-05T08:51:22.545Z,31.18
2022-08-05T08:52:13.706Z,31.74
2022-08-05T08:53:07.941Z,31.04
2022-08-05T08:53:55.318Z,29.43
2022-08-05T08:54:43.429Z,29.15
2022-08-05T08:56:02.703Z,28.34
2022-08-05T08:56:47.669Z,28.98
2022-08-05T08:57:42.023Z,28.90
2022-08-05T08:58:43.636Z,29.23
2022-08-05T08:59:36.430Z,30.01
2022-08-05T09:00:23.369Z,29.78
2022-08-05T09:01:17.238Z,29.77
2022-08-05T09:02:08.475Z,30.21
2022-08-05T09:02:56.768Z,30.37
2022-08-05T09:03:53.068Z,30.48
2022-08-05T09:04:58.467Z,30.59
2022-08-05T09:06:09.103Z,28.74
2022-08-05T09:06:56.320Z,28.52
2022-08-05T09:07:57.779Z,28.82
2022-08-05T09:08:44.990Z,29.04
2022-08-05T09:09:35.414Z,28.98
2022-08-05T09:10:26.998Z,28.79
2022-08-05T09:11:15.314Z,28.66
2022-08-05T09:12:19.875Z,27.98
2022-08-05T09:13:07.439Z,28.31
2022-08-05T09:14:09.166Z,28.65
2022-08-05T09:15:06.390Z,27.68
2022-08-05T09:15:53.449Z,27.44
2022-08-05T09:16:41.869Z,27.94
2022-08-05T09:17:42.899Z,26.91
2022-08-05T09:18:32.540Z,27.35
2022-08-05T09:19:19.307Z,26.93
2022-08-05T09:20:36.187Z,27.66
2022-08-05T09:22:23.170Z,27.42
2022-08-05T09:23:05.023Z,27.51
2022-08-05T09:24:10.139Z,27.85
2022-08-05T09:24:58.819Z,28.01
2022-08-05T09:26:00.969Z,28.16
2022-08-05T09:26:52.261Z,28.16
2022-08-05T09:28:03.800Z,28.48
2022-08-05T09:28:48.319Z,28.88
2022-08-05T09:29:47.574Z,27.17
2022-08-05T09:30:35.158Z,27.81
2022-08-05T09:32:40.268Z,27.96
2022-08-05T09:32:41.209Z,28.80
2022-08-05T09:33:35.144Z,28.08
2022-08-05T09:34:22.622Z,26.88
2022-08-05T09:35:26.784Z,26.86
2022-08-05T09:36:16.629Z,27.36
2022-08-05T09:37:17.725Z,27.57
2022-08-05T09:38:27.618Z,27.93
2022-08-05T09:39:21.896Z,27.79
2022-08-05T09:40:10.171Z,27.20
2022-08-05T09:41:10.118Z,27.45
2022-08-05T09:42:04.578Z,27.16
2022-08-05T09:42:51.331Z,27.21
2022-08-05T09:43:42.207Z,27.88
2022-08-05T09:44:38.906Z,27.37
2022-08-05T09:46:06.960Z,27.06
2022-08-05T09:46:51.951Z,27.63
2022-08-05T09:47:55.527Z,28.73
2022-08-05T09:48:43.499Z,27.77
2022-08-05T09:50:01.093Z,26.08
2022-08-05T09:50:50.870Z,25.80
2022-08-05T09:51:39.995Z,27.06
2022-08-05T09:52:31.485Z,25.94
2022-08-05T09:53:26.060Z,26.14
2022-08-05T09:54:32.273Z,26.30
2022-08-05T09:55:56.674Z,26.29
2022-08-05T09:56:27.500Z,26.39
2022-08-05T09:57:39.468Z,26.00
2022-08-05T09:58:29.133Z,26.51
2022-08-05T09:59:17.576Z,26.51
2022-08-05T10:00:08.426Z,26.27
2022-08-05T10:01:15.072Z,26.08
2022-08-05T10:02:10.047Z,25.61
2022-08-05T10:02:58.112Z,25.70
2022-08-05T10:04:10.272Z,26.49
2022-08-05T10:05:04.598Z,26.41
2022-08-05T10:06:15.485Z,25.88
2022-08-05T10:07:06.139Z,25.29
2022-08-05T10:08:36.744Z,25.94
2022-08-05T10:09:16.470Z,25.07
2022-08-05T10:10:15.936Z,26.08
2022-08-05T10:11:07.010Z,25.33
2022-08-05T10:12:18.515Z,26.05
2022-08-05T10:13:45.817Z,26.13
2022-08-05T10:14:35.239Z,25.12
2022-08-05T10:15:35.089Z,25.38
2022-08-05T10:16:37.678Z,24.23
2022-08-05T10:17:37.705Z,24.80
2022-08-05T10:18:27.848Z,25.27
2022-08-05T10:19:16.399Z,25.12
2022-08-05T10:20:18.251Z,24.85
2022-08-05T10:21:08.666Z,25.15
2022-08-05T10:22:02.260Z,25.21
2022-08-05T10:22:51.137Z,25.34
2022-08-05T10:23:59.052Z,25.26
2022-08-05T10:24:46.426Z,25.72
2022-08-05T10:25:37.619Z,24.75
2022-08-05T10:26:32.629Z,26.43
2022-08-05T10:27:26.247Z,25.34
2022-08-05T10:28:29.459Z,25.09
2022-08-05T10:29:23.626Z,25.02
2022-08-05T10:31:20.052Z,24.38
2022-08-05T10:32:52.206Z,25.36
2022-08-05T10:33:01.486Z,25.14
2022-08-05T10:33:43.392Z,26.39
2022-08-05T10:34:31.390Z,24.09
2022-08-05T10:35:18.241Z,24.25
2022-08-05T10:36:06.231Z,25.04
2022-08-05T10:36:53.087Z,24.07
2022-08-05T10:37:44.929Z,24.36
2022-08-05T10:38:33.988Z,25.00
2022-08-05T10:40:03.469Z,24.97
2022-08-05T10:40:45.169Z,24.42
2022-08-05T10:41:44.827Z,24.89
2022-08-05T10:42:38.818Z,24.24
2022-08-05T10:43:48.619Z,23.77
2022-08-05T10:44:36.112Z,23.97
2022-08-05T10:45:39.725Z,23.94
2022-08-05T10:46:50.561Z,24.23
2022-08-05T10:47:56.157Z,24.13
2022-08-05T10:49:09.624Z,25.26
2022-08-05T10:50:31.961Z,23.28
2022-08-05T10:51:22.436Z,23.04
2022-08-05T10:52:10.234Z,23.67
2022-08-05T10:52:58.460Z,24.42
2022-08-05T10:53:51.679Z,23.92
2022-08-05T10:54:56.067Z,24.12
2022-08-05T10:56:05.131Z,23.84
2022-08-05T10:57:12.778Z,23.75
2022-08-05T10:58:09.636Z,23.62
2022-08-05T10:58:58.458Z,23.46
2022-08-05T11:00:19.821Z,23.34
2022-08-05T11:01:08.328Z,24.09
2022-08-05T11:02:14.111Z,24.44
2022-08-05T11:03:25.349Z,24.91
2022-08-05T11:04:18.519Z,26.01
2022-08-05T11:05:11.151Z,24.38
2022-08-05T11:06:04.830Z,23.45
2022-08-05T11:07:01.582Z,22.54
2022-08-05T11:08:01.160Z,22.66
2022-08-05T11:09:13.193Z,22.63
2022-08-05T11:10:09.956Z,22.75
2022-08-05T11:11:33.038Z,22.67
2022-08-05T11:12:34.733Z,23.01
2022-08-05T11:13:40.807Z,23.83
2022-08-05T11:15:01.293Z,22.91
2022-08-05T11:16:33.742Z,22.99
2022-08-05T11:17:56.777Z,23.64
2022-08-05T11:18:34.610Z,22.67
2022-08-05T11:20:16.652Z,22.28
2022-08-05T11:20:41.699Z,22.86
2022-08-05T11:21:49.007Z,23.02
2022-08-05T11:22:54.014Z,23.02
2022-08-05T11:24:04.649Z,23.76
2022-08-05T11:26:05.630Z,24.34
2022-08-05T11:26:43.518Z,21.83
2022-08-05T11:27:50.804Z,21.94
2022-08-05T11:28:39.999Z,22.43
2022-08-05T11:29:47.198Z,21.17
2022-08-05T11:31:06.544Z,21.67
2022-08-05T11:32:29.318Z,21.91
2022-08-05T11:33:34.555Z,22.70
2022-08-05T11:34:54.411Z,22.11
2022-08-05T11:36:04.461Z,22.34
2022-08-05T11:36:55.698Z,22.51
2022-08-05T11:38:30.407Z,22.90
2022-08-05T11:39:08.438Z,21.49
2022-08-05T11:40:02.981Z,21.62
2022-08-05T11:41:03.537Z,22.41
2022-08-05T11:42:04.546Z,22.56
2022-08-05T11:42:51.690Z,23.10
2022-08-05T11:44:04.950Z,23.54
2022-08-05T11:44:53.840Z,23.98
2022-08-05T11:46:29.889Z,23.98
2022-08-05T11:47:09.925Z,22.90
2022-08-05T11:47:59.009Z,23.79
2022-08-05T11:48:45.747Z,23.62
2022-08-05T11:49:33.969Z,23.35
2022-08-05T11:50:21.130Z,23.64
2022-08-05T11:51:08.495Z,23.50
2022-08-05T11:51:57.926Z,23.31
2022-08-05T11:52:48.890Z,23.11
2022-08-05T11:53:41.020Z,23.72
2022-08-05T11:54:34.970Z,22.25
2022-08-05T11:55:21.859Z,21.70
2022-08-05T11:56:19.369Z,22.11
2022-08-05T11:58:08.237Z,22.07
2022-08-05T11:58:40.249Z,23.26
2022-08-05T11:59:28.988Z,23.53